Time;durP1;ratioP1;P1;durP2;ratioP2;P2;SDS_P1;SDS_P2;PMS_P1;PMS_P2;Temp;Humidity;BMP_temperature;BMP_pressure;BME280_temperature;BME280_humidity;BME280_pressure;Samples;Min_cycle;Max_cycle;Signal;HPM_P1;HPM_P2
2023/05/09 00:01:10;;;;;;;9.53;2.57;;;;;;;16.79;62.66;100398.59;5103151;28;20043;-82
2023/05/09 00:03:36;;;;;;;9.77;3.05;;;;;;;16.77;62.69;100394.25;5099478;28;20499;-82
2023/05/09 00:06:01;;;;;;;12.90;3.03;;;;;;;16.72;62.81;100390.81;5099497;28;20027;-81
2023/05/09 00:08:27;;;;;;;10.43;2.83;;;;;;;16.72;62.97;100391.69;5098052;28;20020;-80
2023/05/09 00:10:52;;;;;;;9.57;3.37;;;;;;;16.70;63.05;100388.22;5097983;28;20270;-81
2023/05/09 00:13:18;;;;;;;8.73;2.87;;;;;;;16.64;63.48;100380.41;5099387;28;20103;-81
2023/05/09 00:15:43;;;;;;;8.43;2.90;;;;;;;16.55;63.80;100378.88;5101888;28;20027;-81
2023/05/09 00:18:10;;;;;;;9.40;2.70;;;;;;;16.47;63.86;100370.22;5100960;28;20085;-82
2023/05/09 00:20:35;;;;;;;7.65;2.35;;;;;;;16.40;64.12;100376.63;5098501;28;20450;-81
2023/05/09 00:23:00;;;;;;;7.67;2.40;;;;;;;16.39;64.00;100386.38;5099012;28;20119;-81
2023/05/09 00:25:26;;;;;;;9.57;2.50;;;;;;;16.38;64.09;100387.28;5097605;28;20560;-81
2023/05/09 00:27:51;;;;;;;8.25;2.20;;;;;;;16.33;64.39;100384.75;5099046;28;20023;-81
2023/05/09 00:30:17;;;;;;;8.30;2.47;;;;;;;16.30;64.39;100383.97;5098633;28;20117;-82
2023/05/09 00:32:42;;;;;;;8.50;2.17;;;;;;;16.27;64.33;100382.25;5098882;28;20396;-81
2023/05/09 00:35:08;;;;;;;6.78;2.10;;;;;;;16.24;64.37;100377.00;5098961;28;20032;-81
2023/05/09 00:37:34;;;;;;;7.47;2.20;;;;;;;16.24;64.49;100374.34;5098739;28;20032;-82
2023/05/09 00:39:59;;;;;;;7.32;2.10;;;;;;;16.20;64.61;100362.94;5097195;28;20046;-81
2023/05/09 00:42:25;;;;;;;9.70;2.00;;;;;;;16.19;64.42;100360.31;5098620;28;20052;-81
2023/05/09 00:44:50;;;;;;;6.73;2.23;;;;;;;16.19;64.65;100349.69;5098657;28;20036;-82
2023/05/09 00:47:16;;;;;;;7.53;1.77;;;;;;;16.20;64.44;100351.44;5098778;28;20064;-80
2023/05/09 00:49:41;;;;;;;8.25;1.75;;;;;;;16.19;64.38;100350.59;5098630;28;20024;-82
2023/05/09 00:52:07;;;;;;;6.63;2.10;;;;;;;16.22;64.52;100357.59;5097425;28;20032;-82
2023/05/09 00:54:32;;;;;;;7.18;1.77;;;;;;;16.21;64.39;100366.47;5098486;28;20050;-80
2023/05/09 00:56:59;;;;;;;6.97;1.93;;;;;;;16.17;64.41;100368.34;5097150;28;20067;-81
2023/05/09 00:59:25;;;;;;;8.27;1.90;;;;;;;16.17;64.36;100367.47;5098239;28;20012;-81
2023/05/09 01:01:50;;;;;;;7.05;2.05;;;;;;;16.15;64.47;100356.84;5098170;28;20035;-81
2023/05/09 01:04:16;;;;;;;9.10;1.90;;;;;;;16.15;64.42;100350.69;5098325;28;20035;-81
2023/05/09 01:06:56;;;;;;;9.87;1.90;;;;;;;16.14;64.53;100356.91;5098216;28;20035;-82
2023/05/09 01:09:44;;;;;;;7.57;1.83;;;;;;;16.05;64.73;100348.28;5098353;28;20111;-81
2023/05/09 01:12:26;;;;;;;11.10;2.20;;;;;;;16.01;65.07;100335.97;5085653;28;20020;-81
2023/05/09 01:15:24;;;;;;;6.30;1.90;;;;;;;15.98;64.78;100329.88;5096513;28;20070;-81
2023/05/09 01:18:31;;;;;;;4.97;1.70;;;;;;;15.92;65.39;100336.22;5022006;28;20046;-81
2023/05/09 01:21:02;;;;;;;6.97;1.67;;;;;;;15.90;65.05;100328.28;5097851;28;20039;-81
2023/05/09 01:23:43;;;;;;;5.50;1.60;;;;;;;15.89;65.30;100330.97;5097758;28;20476;-81
2023/05/09 01:26:17;;;;;;;6.18;1.63;;;;;;;15.90;65.37;100335.38;5097925;28;20054;-81
2023/05/09 01:29:23;;;;;;;9.45;1.98;;;;;;;15.87;65.39;100322.16;5097996;28;20032;-81
2023/05/09 01:31:49;;;;;;;6.43;1.50;;;;;;;15.85;64.94;100321.31;5089264;28;20028;-81
2023/05/09 01:34:17;;;;;;;8.10;1.70;;;;;;;15.85;64.83;100330.16;5097136;28;20023;-81
2023/05/09 01:36:43;;;;;;;6.03;1.95;;;;;;;15.84;64.99;100338.16;5096217;28;20039;-82
2023/05/09 01:39:11;;;;;;;5.32;1.60;;;;;;;15.84;64.99;100339.03;5097253;28;20028;-82
2023/05/09 01:41:37;;;;;;;5.93;1.87;;;;;;;15.83;65.01;100336.41;5097863;28;20130;-82
2023/05/09 01:44:06;;;;;;;5.72;2.00;;;;;;;15.78;65.07;100339.19;5097284;28;20059;-82
2023/05/09 01:46:34;;;;;;;6.07;1.73;;;;;;;15.75;65.06;100340.13;5096119;28;20040;-82
2023/05/09 01:49:01;;;;;;;5.90;1.60;;;;;;;15.76;65.04;100341.84;5095956;28;20500;-81
2023/05/09 01:51:30;;;;;;;5.65;1.60;;;;;;;15.76;65.18;100339.19;5097374;28;20066;-81
2023/05/09 01:53:57;;;;;;;8.38;2.00;;;;;;;15.78;65.33;100340.03;5097444;28;20526;-81
2023/05/09 01:56:24;;;;;;;6.63;2.00;;;;;;;15.75;65.46;100334.81;5097134;28;20074;-81
2023/05/09 01:58:51;;;;;;;10.10;2.10;;;;;;;15.72;65.87;100329.56;5097049;28;20024;-80
2023/05/09 02:01:18;;;;;;;9.87;2.10;;;;;;;15.70;66.10;100315.47;5097172;28;20039;-81
2023/05/09 02:03:45;;;;;;;7.63;1.98;;;;;;;15.64;66.59;100310.31;5097219;28;20031;-82
2023/05/09 02:06:12;;;;;;;6.40;1.98;;;;;;;15.63;66.35;100308.56;5097519;28;20028;-81
2023/05/09 02:08:38;;;;;;;8.50;1.88;;;;;;;15.66;66.40;100313.81;5097203;28;20070;-81
2023/05/09 02:11:04;;;;;;;7.63;2.10;;;;;;;15.68;66.41;100311.97;5097105;28;20043;-81
2023/05/09 02:13:29;;;;;;;9.37;2.40;;;;;;;15.63;66.90;100296.16;5095630;28;20043;-81
2023/05/09 02:15:55;;;;;;;7.15;2.30;;;;;;;15.56;67.35;100280.44;5101371;28;20027;-81
2023/05/09 02:18:21;;;;;;;7.40;2.23;;;;;;;15.50;67.23;100268.19;5099586;28;20476;-82
2023/05/09 02:20:47;;;;;;;8.73;1.98;;;;;;;15.52;67.48;100279.63;5097105;28;20051;-82
2023/05/09 02:23:12;;;;;;;7.47;2.00;;;;;;;15.59;67.53;100283.03;5096822;28;20024;-82
2023/05/09 02:25:39;;;;;;;10.87;2.27;;;;;;;15.59;67.70;100281.22;5096972;28;20024;-81
2023/05/09 02:28:06;;;;;;;9.82;2.17;;;;;;;15.56;67.92;100293.72;5095769;28;20024;-82
2023/05/09 02:30:37;;;;;;;8.27;2.10;;;;;;;15.54;67.93;100292.84;5093820;28;20028;-82
2023/05/09 02:33:06;;;;;;;9.23;2.30;;;;;;;15.48;68.43;100309.81;5094540;28;20024;-81
2023/05/09 02:35:33;;;;;;;6.80;2.40;;;;;;;15.42;68.41;100321.44;5095545;28;20479;-82
2023/05/09 02:37:59;;;;;;;5.60;2.33;;;;;;;15.38;68.78;100325.06;5082813;28;21950;-79
2023/05/09 02:40:26;;;;;;;7.65;2.40;;;;;;;15.34;68.81;100318.97;5096656;28;20067;-81
2023/05/09 02:42:52;;;;;;;9.75;2.00;;;;;;;15.34;68.94;100323.41;5083210;28;20032;-81
2023/05/09 02:45:17;;;;;;;7.27;2.13;;;;;;;15.30;69.06;100314.63;5096242;28;20495;-81
2023/05/09 02:47:43;;;;;;;7.87;2.20;;;;;;;15.27;69.59;100316.47;5096379;28;20051;-81
2023/05/09 02:50:08;;;;;;;9.18;2.30;;;;;;;15.24;70.00;100321.84;5096752;28;20506;-81
2023/05/09 02:52:34;;;;;;;7.87;2.20;;;;;;;15.18;70.51;100320.22;5096303;28;20533;-80
2023/05/09 02:54:59;;;;;;;10.23;2.83;;;;;;;15.17;70.28;100331.72;5093913;28;20408;-80
2023/05/09 02:57:25;;;;;;;11.07;2.42;;;;;;;15.14;70.31;100322.06;5096437;28;20038;-81
2023/05/09 02:59:50;;;;;;;7.83;2.37;;;;;;;15.13;70.48;100330.06;5096271;28;20034;-80
2023/05/09 03:02:16;;;;;;;7.63;2.40;;;;;;;15.14;70.51;100338.00;5095527;28;20028;-81
2023/05/09 03:04:41;;;;;;;9.13;2.43;;;;;;;15.16;70.33;100328.22;5096437;28;20623;-81
2023/05/09 03:07:07;;;;;;;7.70;2.30;;;;;;;15.21;70.17;100328.13;5095232;28;20024;-81
2023/05/09 03:09:32;;;;;;;12.20;2.10;;;;;;;15.24;70.09;100329.81;5095890;28;20028;-81
2023/05/09 03:11:58;;;;;;;6.27;2.13;;;;;;;15.26;70.18;100322.69;5094995;28;20024;-81
2023/05/09 03:14:23;;;;;;;9.47;2.13;;;;;;;15.28;70.13;100323.53;5094991;28;20266;-81
2023/05/09 03:16:49;;;;;;;9.20;2.20;;;;;;;15.30;70.21;100321.72;5100829;28;20392;-81
2023/05/09 03:19:14;;;;;;;8.63;2.33;;;;;;;15.32;70.15;100323.44;5096277;28;20016;-80
2023/05/09 03:21:40;;;;;;;10.80;2.40;;;;;;;15.34;69.96;100323.41;5094976;28;20035;-81
2023/05/09 03:24:06;;;;;;;7.07;2.20;;;;;;;15.33;70.23;100326.97;5096045;28;20082;-81
2023/05/09 03:26:34;;;;;;;8.50;2.10;;;;;;;15.32;70.32;100320.78;5096380;28;20055;-81
2023/05/09 03:29:00;;;;;;;11.05;2.60;;;;;;;15.32;70.38;100319.91;5096334;28;20024;-81
2023/05/09 03:31:25;;;;;;;9.20;2.40;;;;;;;15.31;70.62;100323.44;5094476;28;20054;-80
2023/05/09 03:33:51;;;;;;;9.73;2.63;;;;;;;15.32;70.55;100323.44;5095964;28;20032;-81
2023/05/09 03:36:16;;;;;;;6.53;2.10;;;;;;;15.36;70.35;100326.91;5096077;28;20039;-82
2023/05/09 03:38:42;;;;;;;8.90;2.80;;;;;;;15.38;70.67;100327.72;5095857;28;20027;-81
2023/05/09 03:41:07;;;;;;;9.98;2.45;;;;;;;15.35;70.78;100326.00;5095806;28;20039;-81
2023/05/09 03:43:32;;;;;;;8.70;2.10;;;;;;;15.32;71.41;100325.22;5096239;28;20039;-80
2023/05/09 03:45:58;;;;;;;9.37;2.60;;;;;;;15.30;71.54;100321.72;5095983;28;20024;-80
2023/05/09 03:48:23;;;;;;;9.03;2.27;;;;;;;15.30;71.42;100308.44;5094658;28;20070;-84
2023/05/09 03:50:49;;;;;;;8.73;2.10;;;;;;;15.32;71.31;100293.38;5096105;28;20060;-82
2023/05/09 03:53:14;;;;;;;8.82;2.72;;;;;;;15.33;71.13;100295.13;5095798;28;20040;-82
2023/05/09 03:55:40;;;;;;;9.17;2.40;;;;;;;15.33;71.30;100296.00;5095221;28;20035;-81
2023/05/09 03:58:05;;;;;;;9.67;2.23;;;;;;;15.31;71.26;100286.31;5098326;28;20081;-81
2023/05/09 04:00:31;;;;;;;9.40;2.50;;;;;;;15.28;71.20;100276.66;5099558;28;20035;-81
2023/05/09 04:02:56;;;;;;;13.10;2.50;;;;;;;15.27;71.15;100279.34;5099623;28;20300;-81
2023/05/09 04:05:21;;;;;;;11.97;2.53;;;;;;;15.24;71.26;100275.00;5099227;28;20054;-81
2023/05/09 04:07:47;;;;;;;9.03;2.40;;;;;;;15.21;71.31;100269.75;5099668;28;20024;-81
2023/05/09 04:10:12;;;;;;;12.35;2.33;;;;;;;15.19;71.39;100275.09;5099183;28;20111;-81
2023/05/09 04:12:38;;;;;;;10.33;2.33;;;;;;;15.20;71.20;100282.13;5099340;28;20028;-82
2023/05/09 04:15:03;;;;;;;9.43;2.30;;;;;;;15.21;71.33;100286.53;5098959;28;20044;-82
2023/05/09 04:17:29;;;;;;;8.60;2.10;;;;;;;15.20;71.19;100289.25;5105312;28;20031;-82
2023/05/09 04:19:55;;;;;;;7.10;2.13;;;;;;;15.15;71.59;100276.06;5098551;28;20027;-81
2023/05/09 04:22:20;;;;;;;12.83;2.40;;;;;;;15.14;71.43;100282.28;5099050;28;20088;-82
2023/05/09 04:24:45;;;;;;;9.13;2.22;;;;;;;15.13;71.72;100282.31;5097559;28;20031;-82
2023/05/09 04:27:11;;;;;;;8.33;2.80;;;;;;;15.11;71.71;100278.81;5097859;28;20399;-81
2023/05/09 04:29:37;;;;;;;11.80;2.37;;;;;;;15.11;71.57;100268.22;5099002;28;20107;-81
2023/05/09 04:32:03;;;;;;;10.95;2.22;;;;;;;15.06;71.62;100263.00;5094117;28;20115;-81
2023/05/09 04:34:29;;;;;;;10.68;2.40;;;;;;;15.04;71.65;100267.47;5098089;28;20061;-81
2023/05/09 04:36:55;;;;;;;8.07;2.53;;;;;;;15.04;71.42;100273.66;5098874;28;20028;-81
2023/05/09 04:39:20;;;;;;;10.20;2.20;;;;;;;15.03;71.49;100266.63;5098484;28;20020;-81
2023/05/09 04:41:46;;;;;;;11.85;2.60;;;;;;;15.02;71.66;100271.94;5098999;28;20399;-81
2023/05/09 04:44:18;;;;;;;11.07;2.78;;;;;;;14.99;71.84;100269.38;5098940;28;21251;-81
2023/05/09 04:46:43;;;;;;;8.27;2.57;;;;;;;14.94;71.84;100258.84;5098436;28;20476;-82
2023/05/09 04:49:09;;;;;;;11.80;2.40;;;;;;;14.95;71.34;100257.09;5098074;28;20048;-82
2023/05/09 04:51:34;;;;;;;11.47;2.37;;;;;;;14.95;71.54;100267.69;5098635;28;20039;-81
2023/05/09 04:54:00;;;;;;;10.10;2.30;;;;;;;14.95;71.56;100267.69;5098521;28;20031;-81
2023/05/09 04:56:25;;;;;;;8.43;2.40;;;;;;;14.95;71.56;100273.00;5098426;28;20028;-81
2023/05/09 04:58:51;;;;;;;11.30;2.43;;;;;;;14.97;71.52;100279.13;5096935;28;20292;-81
2023/05/09 05:01:17;;;;;;;10.35;2.70;;;;;;;14.97;71.67;100266.75;5097964;28;20495;-81
2023/05/09 05:03:43;;;;;;;7.40;2.07;;;;;;;15.02;71.31;100272.84;5096068;28;20055;-81
2023/05/09 05:06:08;;;;;;;9.32;2.67;;;;;;;15.09;71.00;100278.88;5098263;28;20103;-81
2023/05/09 05:08:33;;;;;;;7.87;2.10;;;;;;;15.15;70.99;100278.72;5098195;28;20031;-81
2023/05/09 05:10:59;;;;;;;6.83;2.23;;;;;;;15.21;70.65;100283.88;5098096;28;20049;-82
2023/05/09 05:13:24;;;;;;;9.10;2.20;;;;;;;15.23;70.92;100278.56;5096802;28;20446;-81
2023/05/09 05:15:50;;;;;;;9.50;2.45;;;;;;;15.25;70.81;100275.84;5101403;28;20655;-81
2023/05/09 05:18:16;;;;;;;8.80;2.23;;;;;;;15.24;70.89;100260.84;5081990;28;20058;-81
2023/05/09 05:20:41;;;;;;;10.18;2.60;;;;;;;15.20;71.22;100260.91;5084641;28;20033;-81
2023/05/09 05:23:07;;;;;;;8.07;2.40;;;;;;;15.17;71.40;100254.81;5080841;28;20013;-81
2023/05/09 05:25:33;;;;;;;11.02;2.28;;;;;;;15.19;71.38;100250.34;5085510;28;20031;-81
2023/05/09 05:27:59;;;;;;;14.57;2.80;;;;;;;15.19;71.65;100253.88;5077624;28;20021;-81
2023/05/09 05:30:24;;;;;;;7.68;2.30;;;;;;;15.18;71.62;100252.13;5075660;28;20024;-81
2023/05/09 05:32:50;;;;;;;11.33;2.50;;;;;;;15.19;71.62;100251.22;5077359;28;20029;-81
2023/05/09 05:35:15;;;;;;;11.53;2.83;;;;;;;15.18;71.96;100252.13;5087843;28;20032;-81
2023/05/09 05:37:41;;;;;;;9.00;2.83;;;;;;;15.21;71.71;100251.19;5094421;28;20066;-83
2023/05/09 05:40:07;;;;;;;12.90;2.33;;;;;;;15.23;71.55;100248.50;5086287;28;20020;-82
2023/05/09 05:42:33;;;;;;;11.77;2.65;;;;;;;15.28;71.64;100249.25;5078148;28;20044;-81
2023/05/09 05:45:05;;;;;;;9.63;2.60;;;;;;;15.30;71.67;100242.13;5075634;28;20020;-81
2023/05/09 05:47:34;;;;;;;8.75;2.65;;;;;;;15.33;71.56;100247.38;5076912;28;20036;-81
2023/05/09 05:50:01;;;;;;;9.27;2.15;;;;;;;15.37;71.45;100254.34;5077020;28;20028;-85
2023/05/09 05:52:26;;;;;;;11.32;3.00;;;;;;;15.40;71.38;100254.28;5076832;28;20082;-85
2023/05/09 05:54:55;;;;;;;11.03;2.77;;;;;;;15.42;71.51;100262.19;5076607;28;20028;-85
2023/05/09 05:57:21;;;;;;;11.93;2.45;;;;;;;15.45;71.34;100262.13;5077776;28;20113;-85
2023/05/09 05:59:47;;;;;;;12.52;2.50;;;;;;;15.51;71.19;100261.97;5096986;28;20028;-85
2023/05/09 06:02:13;;;;;;;12.37;2.50;;;;;;;15.59;71.03;100264.44;5083336;28;20035;-84
2023/05/09 06:04:40;;;;;;;7.97;3.00;;;;;;;15.66;70.86;100260.72;5084803;28;20070;-83
2023/05/09 06:07:05;;;;;;;10.57;3.13;;;;;;;15.71;70.92;100248.19;5078858;28;20032;-84
2023/05/09 06:09:31;;;;;;;8.07;2.67;;;;;;;15.73;71.25;100234.88;5097524;28;20085;-80
2023/05/09 06:11:56;;;;;;;13.40;2.93;;;;;;;15.71;71.16;100223.44;5097173;28;20085;-84
2023/05/09 06:14:21;;;;;;;11.10;2.90;;;;;;;15.73;71.26;100222.47;5097279;28;20027;-80
2023/05/09 06:16:47;;;;;;;8.10;2.80;;;;;;;15.76;71.31;100225.03;5098416;28;20028;-83
2023/05/09 06:19:12;;;;;;;11.90;3.20;;;;;;;15.77;71.52;100228.59;5080697;28;20028;-82
2023/05/09 06:21:38;;;;;;;12.73;2.90;;;;;;;15.79;71.57;100227.63;5081183;28;20032;-82
2023/05/09 06:24:03;;;;;;;13.53;2.70;;;;;;;15.83;71.23;100240.84;5079309;28;20031;-83
2023/05/09 06:26:29;;;;;;;8.90;3.00;;;;;;;15.88;71.29;100244.22;5083974;28;20035;-85
2023/05/09 06:28:55;;;;;;;10.93;3.00;;;;;;;15.89;71.43;100256.63;5102742;28;20028;-87
2023/05/09 06:31:20;;;;;;;11.60;3.50;;;;;;;15.91;71.45;100252.16;5091282;28;20029;-85
2023/05/09 06:33:46;;;;;;;11.27;2.70;;;;;;;15.92;71.46;100233.53;5094959;28;20037;-86
2023/05/09 06:36:11;;;;;;;11.93;3.83;;;;;;;16.00;71.35;100238.59;5110988;28;20047;-86
2023/05/09 06:38:37;;;;;;;9.03;2.57;;;;;;;16.07;71.30;100231.34;5087186;28;20039;-86
2023/05/09 06:41:02;;;;;;;10.33;3.03;;;;;;;16.12;71.27;100231.22;5085248;28;20040;-83
2023/05/09 06:43:27;;;;;;;12.20;3.10;;;;;;;16.18;71.15;100231.06;5075922;28;20028;-84
2023/05/09 06:45:53;;;;;;;8.90;2.40;;;;;;;16.21;71.04;100230.97;5075680;28;20036;-82
2023/05/09 06:48:18;;;;;;;10.53;2.60;;;;;;;16.23;71.17;100229.13;5076538;28;20275;-85
2023/05/09 06:50:44;;;;;;;12.97;2.90;;;;;;;16.26;71.10;100229.03;5088299;28;20028;-86
2023/05/09 06:53:09;;;;;;;13.17;3.30;;;;;;;16.30;71.17;100241.34;5078986;28;20040;-88
2023/05/09 06:55:35;;;;;;;11.00;3.07;;;;;;;16.34;71.12;100239.47;5082466;28;20038;-89
2023/05/09 06:58:00;;;;;;;12.07;3.13;;;;;;;16.36;70.93;100227.00;5096781;28;20668;-89
2023/05/09 07:00:25;;;;;;;14.47;3.30;;;;;;;16.38;71.13;100225.16;5092518;28;20028;-88
2023/05/09 07:02:51;;;;;;;10.87;4.03;;;;;;;16.38;70.56;100222.50;5076747;28;20500;-88
2023/05/09 07:05:16;;;;;;;11.63;3.60;;;;;;;16.36;71.07;100217.25;5095082;28;20047;-87
2023/05/09 07:07:42;;;;;;;11.93;3.63;;;;;;;16.34;71.12;100211.13;5096859;28;20032;-88
2023/05/09 07:10:08;;;;;;;12.40;3.50;;;;;;;16.34;71.25;100205.78;5096952;28;20020;-88
2023/05/09 07:12:33;;;;;;;16.02;3.45;;;;;;;16.36;70.86;100206.63;5096839;28;20054;-88
2023/05/09 07:14:59;;;;;;;12.27;3.70;;;;;;;16.43;70.96;100201.13;5079379;28;20033;-88
2023/05/09 07:17:24;;;;;;;12.07;3.30;;;;;;;16.48;70.98;100201.84;5088351;28;20047;-89
2023/05/09 07:19:50;;;;;;;16.83;3.97;;;;;;;16.50;70.86;100205.31;5083672;28;20064;-88
2023/05/09 07:22:15;;;;;;;12.13;3.95;;;;;;;16.54;70.70;100207.00;5075272;28;20028;-88
2023/05/09 07:24:43;;;;;;;11.57;3.40;;;;;;;16.58;70.67;100215.75;5089064;28;20029;-88
2023/05/09 07:27:08;;;;;;;14.20;4.18;;;;;;;16.66;70.58;100216.41;5076624;28;20056;-88
2023/05/09 07:29:33;;;;;;;15.93;4.53;;;;;;;16.70;70.55;100206.53;5076468;28;20528;-89
2023/05/09 07:31:59;;;;;;;13.57;3.83;;;;;;;16.72;70.38;100199.38;5079435;28;20029;-88
2023/05/09 07:34:24;;;;;;;12.53;4.10;;;;;;;16.70;70.40;100185.25;5097149;28;20031;-88
2023/05/09 07:36:50;;;;;;;13.77;3.33;;;;;;;16.72;70.45;100183.41;5100793;28;20480;-89
2023/05/09 07:39:15;;;;;;;12.87;3.60;;;;;;;16.76;70.32;100175.31;5085580;28;20118;-88
2023/05/09 07:41:41;;;;;;;11.93;3.55;;;;;;;16.79;70.05;100179.66;5088359;28;20032;-88
2023/05/09 07:44:08;;;;;;;12.30;4.10;;;;;;;16.78;70.51;100177.94;5080122;28;20028;-88
2023/05/09 07:46:39;;;;;;;9.55;3.20;;;;;;;16.84;70.19;100193.69;5080062;28;20054;-89
2023/05/09 07:49:05;;;;;;;11.95;3.55;;;;;;;16.91;70.25;100205.00;5079853;28;20044;-89
2023/05/09 07:51:31;;;;;;;17.07;3.83;;;;;;;16.92;70.04;100210.25;5096218;28;20128;-88
2023/05/09 07:53:56;;;;;;;10.60;3.30;;;;;;;16.95;69.85;100209.31;5100418;28;20062;-89
2023/05/09 07:56:22;;;;;;;12.73;3.40;;;;;;;17.02;69.69;100210.03;5100389;28;20492;-88
2023/05/09 07:58:47;;;;;;;10.37;3.40;;;;;;;17.03;69.80;100207.28;5099906;28;20099;-88
2023/05/09 08:01:13;;;;;;;13.50;3.40;;;;;;;17.02;69.97;100199.38;5088260;28;20108;-86
2023/05/09 08:03:38;;;;;;;9.80;3.03;;;;;;;17.00;69.92;100198.53;5078631;28;20024;-89
2023/05/09 08:06:04;;;;;;;10.70;3.30;;;;;;;16.99;70.19;100192.34;5091143;28;20020;-89
2023/05/09 08:08:29;;;;;;;12.73;3.13;;;;;;;17.01;70.14;100194.97;5080660;28;20028;-89
2023/05/09 08:10:55;;;;;;;12.50;3.50;;;;;;;17.03;70.07;100204.63;5079588;28;20020;-88
2023/05/09 08:13:21;;;;;;;12.93;3.50;;;;;;;17.05;70.14;100201.94;5078515;28;20025;-88
2023/05/09 08:15:47;;;;;;;9.40;3.00;;;;;;;17.11;70.05;100196.41;5086137;28;20495;-88
2023/05/09 08:18:13;;;;;;;13.32;3.72;;;;;;;17.18;70.23;100197.94;5083803;28;20055;-89
2023/05/09 08:20:39;;;;;;;9.88;2.80;;;;;;;17.25;70.00;100195.09;5085919;28;20037;-88
2023/05/09 08:23:04;;;;;;;10.63;3.08;;;;;;;17.34;69.84;100187.66;5081953;28;20024;-89
2023/05/09 08:25:30;;;;;;;10.90;3.30;;;;;;;17.41;69.63;100188.31;5088426;28;20044;-88
2023/05/09 08:27:55;;;;;;;13.67;3.10;;;;;;;17.50;69.50;100190.69;5095548;28;20024;-90
2023/05/09 08:30:21;;;;;;;14.05;3.17;;;;;;;17.60;69.59;100182.38;5098236;28;20053;-88
2023/05/09 08:32:46;;;;;;;12.07;3.07;;;;;;;17.71;69.02;100185.53;5079025;28;20070;-87
2023/05/09 08:35:12;;;;;;;14.97;3.30;;;;;;;17.83;68.63;100178.03;5090025;28;20028;-88
2023/05/09 08:37:37;;;;;;;14.37;3.23;;;;;;;17.92;68.00;100178.59;5096752;28;20382;-88
2023/05/09 08:40:06;;;;;;;8.73;2.40;;;;;;;18.02;67.89;100176.50;5097788;28;20028;-88
2023/05/09 08:42:35;;;;;;;11.65;2.70;;;;;;;18.12;67.47;100179.69;5081212;28;20120;-88
2023/05/09 08:45:05;;;;;;;9.00;3.75;;;;;;;18.15;67.30;100178.69;5077515;28;20028;-88
2023/05/09 08:47:34;;;;;;;9.93;2.38;;;;;;;18.20;67.29;100179.38;5095977;28;20093;-89
2023/05/09 08:50:02;;;;;;;11.63;2.78;;;;;;;18.24;67.03;100181.03;5090993;28;20360;-88
2023/05/09 08:52:29;;;;;;;10.53;3.10;;;;;;;18.21;66.81;100176.66;5099269;28;20059;-88
2023/05/09 08:54:55;;;;;;;9.80;2.78;;;;;;;18.21;66.23;100173.16;5098975;28;20066;-87
2023/05/09 08:57:21;;;;;;;12.60;3.10;;;;;;;18.20;65.26;100180.25;5097656;28;20036;-88
2023/05/09 08:59:48;;;;;;;10.47;2.60;;;;;;;18.20;64.99;100171.38;5095564;28;20024;-88
2023/05/09 09:02:13;;;;;;;13.98;3.25;;;;;;;18.24;65.20;100173.03;5097172;28;20460;-88
2023/05/09 09:04:39;;;;;;;9.73;2.77;;;;;;;18.27;64.69;100172.91;5097424;28;20051;-88
2023/05/09 09:07:06;;;;;;;11.57;2.60;;;;;;;18.34;64.43;100174.41;5098880;28;20258;-88
2023/05/09 09:09:34;;;;;;;9.82;2.58;;;;;;;18.40;63.44;100173.31;5098572;28;20027;-88
2023/05/09 09:12:02;;;;;;;8.52;1.75;;;;;;;18.44;62.70;100174.03;5097331;28;20446;-88
2023/05/09 09:14:30;;;;;;;9.10;1.90;;;;;;;18.45;61.38;100175.81;5097290;28;20024;-88
2023/05/09 09:16:57;;;;;;;8.43;1.97;;;;;;;18.44;61.48;100171.38;5089729;28;20071;-88
2023/05/09 09:19:29;;;;;;;6.18;1.75;;;;;;;18.44;60.70;100174.03;5092052;28;20020;-88
2023/05/09 09:21:58;;;;;;;9.23;1.88;;;;;;;18.42;59.18;100167.91;5078266;28;20040;-89
2023/05/09 09:24:23;;;;;;;5.95;1.27;;;;;;;18.40;59.73;100167.09;5080109;28;20078;-87
2023/05/09 09:26:50;;;;;;;7.37;1.60;;;;;;;18.39;59.73;100181.34;5090465;28;20032;-87
2023/05/09 09:29:17;;;;;;;6.53;1.40;;;;;;;18.36;59.59;100183.22;5078037;28;20051;-87
2023/05/09 09:31:46;;;;;;;7.40;1.60;;;;;;;18.27;57.56;100175.56;5077802;28;20378;-87
2023/05/09 09:34:18;;;;;;;6.63;1.53;;;;;;;18.18;58.35;100181.22;5080144;28;20028;-88
2023/05/09 09:36:45;;;;;;;6.55;1.35;;;;;;;18.11;58.04;100183.28;5088536;28;20063;-86
2023/05/09 09:39:12;;;;;;;5.97;1.60;;;;;;;18.05;58.50;100179.03;5090951;28;20377;-88
2023/05/09 09:41:40;;;;;;;9.13;1.77;;;;;;;18.02;58.60;100181.81;5086979;28;20036;-88
2023/05/09 09:44:10;;;;;;;5.88;1.50;;;;;;;17.97;57.96;100181.09;5093850;28;20400;-88
2023/05/09 09:46:53;;;;;;;9.03;1.70;;;;;;;17.88;56.74;100182.28;5087103;28;20486;-87
2023/05/09 09:49:23;;;;;;;7.03;1.50;;;;;;;17.83;55.76;100184.22;5077177;28;20037;-88
2023/05/09 09:51:54;;;;;;;5.90;1.42;;;;;;;17.77;55.65;100182.66;5077574;28;20043;-88
2023/05/09 09:54:20;;;;;;;6.93;1.42;;;;;;;17.73;53.28;100189.03;5075293;28;20052;-77
2023/05/09 09:56:53;;;;;;;7.28;1.20;;;;;;;17.65;51.41;100191.06;5077263;28;20025;-79
2023/05/09 09:59:26;;;;;;;4.57;0.80;;;;;;;17.56;51.49;100196.72;5081562;28;20028;-79
2023/05/09 10:02:06;;;;;;;6.38;1.10;;;;;;;17.42;50.85;100197.19;5090477;28;20028;-79
2023/05/09 10:04:34;;;;;;;7.15;1.10;;;;;;;17.35;52.29;100208.03;5077346;28;20025;-83
2023/05/09 10:07:05;;;;;;;5.03;1.00;;;;;;;17.29;53.44;100210.03;5076078;28;20536;-83
2023/05/09 10:09:31;;;;;;;5.00;1.33;;;;;;;17.17;55.28;100217.50;5077021;28;20016;-83
2023/05/09 10:12:03;;;;;;;5.60;1.20;;;;;;;17.06;57.05;100224.97;5082782;28;20035;-84
2023/05/09 10:14:30;;;;;;;7.53;1.65;;;;;;;16.89;59.05;100228.13;5082683;28;20459;-83
2023/05/09 10:16:56;;;;;;;5.53;1.48;;;;;;;16.70;60.31;100222.47;5087532;28;20054;-88
2023/05/09 10:19:23;;;;;;;5.13;1.70;;;;;;;16.52;62.09;100223.91;5083932;28;20038;-88
2023/05/09 10:22:08;;;;;;;8.18;1.73;;;;;;;16.38;63.79;100234.94;5090341;28;20098;-86
2023/05/09 10:24:38;;;;;;;7.70;1.90;;;;;;;16.30;63.83;100229.84;5089189;28;20036;-81
2023/05/09 10:27:08;;;;;;;8.50;2.00;;;;;;;16.28;64.39;100224.59;5077166;28;20029;-82
2023/05/09 10:29:45;;;;;;;5.30;1.83;;;;;;;16.29;65.92;100228.09;5077255;28;20051;-84
2023/05/09 10:32:37;;;;;;;6.65;1.80;;;;;;;16.22;67.05;100227.38;5075523;28;20031;-84
2023/05/09 10:35:09;;;;;;;6.53;2.20;;;;;;;16.19;66.45;100233.69;5086430;28;20027;-84
2023/05/09 10:37:36;;;;;;;6.93;2.10;;;;;;;16.23;66.53;100230.94;5097226;28;20079;-84
2023/05/09 10:40:03;;;;;;;7.53;2.10;;;;;;;16.25;67.17;100232.63;5095519;28;20031;-83
2023/05/09 10:42:30;;;;;;;8.85;2.55;;;;;;;16.29;66.96;100234.28;5079753;28;20032;-84
2023/05/09 10:44:56;;;;;;;9.18;2.20;;;;;;;16.30;67.37;100236.03;5076707;28;20028;-85
2023/05/09 10:47:25;;;;;;;9.00;2.05;;;;;;;16.32;67.53;100234.19;5076744;28;20025;-83
2023/05/09 10:49:51;;;;;;;8.67;2.30;;;;;;;16.37;67.71;100236.72;5088438;28;20050;-84
2023/05/09 10:52:19;;;;;;;9.25;2.20;;;;;;;16.37;67.93;100228.75;5078437;28;20043;-83
2023/05/09 10:54:57;;;;;;;8.82;2.50;;;;;;;16.34;69.05;100232.38;5076494;28;20029;-85
2023/05/09 10:57:23;;;;;;;9.10;2.55;;;;;;;16.31;68.73;100235.13;5090312;28;20052;-84
2023/05/09 10:59:50;;;;;;;7.30;2.53;;;;;;;16.35;68.88;100233.22;5081373;28;20054;-85
2023/05/09 11:02:19;;;;;;;8.27;3.20;;;;;;;16.40;69.25;100230.44;5096596;28;20046;-85
2023/05/09 11:04:45;;;;;;;9.95;3.95;;;;;;;16.43;69.86;100233.00;5098131;28;20039;-86
2023/05/09 11:07:26;;;;;;;12.00;3.97;;;;;;;16.41;71.99;100232.19;5101343;28;20498;-88
2023/05/09 11:10:40;;;;;;;12.90;3.40;;;;;;;16.37;71.79;100236.72;5100902;28;20031;-85
2023/05/09 11:13:08;;;;;;;9.70;3.03;;;;;;;16.38;71.51;100234.94;5003085;28;20530;-85
2023/05/09 11:15:35;;;;;;;12.23;3.35;;;;;;;16.40;71.32;100238.41;4981769;28;20081;-85
2023/05/09 11:18:08;;;;;;;6.97;2.85;;;;;;;16.44;71.83;100240.06;5049523;28;20040;-86
2023/05/09 11:20:34;;;;;;;7.97;2.85;;;;;;;16.48;71.11;100241.72;5086613;28;20043;-85
2023/05/09 11:23:02;;;;;;;9.95;3.03;;;;;;;16.49;71.40;100249.66;5082712;28;20055;-85